Time;durP1;ratioP1;P1;durP2;ratioP2;P2;SDS_P1;SDS_P2;PMS_P1;PMS_P2;Temp;Humidity;BMP_temperature;BMP_pressure;BME280_temperature;BME280_humidity;BME280_pressure;Samples;Min_cycle;Max_cycle;Signal;HPM_P1;HPM_P2
2022/01/10 00:01:15;;;;;;;43.20;22.60;;;;;;;3.14;57.38;99121.81;4410983;32;33580;-79
2022/01/10 00:03:47;;;;;;;45.15;22.35;;;;;;;3.18;57.27;99122.31;4410912;32;34321;-79
2022/01/10 00:06:15;;;;;;;39.28;20.65;;;;;;;3.16;57.23;99121.66;4410083;32;33639;-79
2022/01/10 00:08:48;;;;;;;44.97;22.62;;;;;;;3.29;57.03;99116.47;4409951;32;33943;-79
2022/01/10 00:11:21;;;;;;;41.20;22.23;;;;;;;3.28;56.96;99114.78;4409999;32;33835;-80
2022/01/10 00:13:54;;;;;;;43.10;21.37;;;;;;;3.29;56.92;99108.34;4410661;32;34103;-79
2022/01/10 00:16:27;;;;;;;39.28;21.17;;;;;;;3.41;56.50;99108.78;4409928;32;33743;-79
2022/01/10 00:19:00;;;;;;;40.92;21.10;;;;;;;3.36;56.65;99109.31;4410554;32;32691;-79
2022/01/10 00:21:28;;;;;;;39.28;20.80;;;;;;;3.32;56.80;99113.41;4410135;32;32160;-79
2022/01/10 00:24:01;;;;;;;37.08;20.50;;;;;;;3.40;56.56;99113.38;4409652;32;34055;-79
2022/01/10 00:26:36;;;;;;;39.58;20.80;;;;;;;3.25;56.88;99109.75;4410386;32;32564;-79
2022/01/10 00:29:10;;;;;;;40.55;21.80;;;;;;;3.24;56.82;99108.91;4422904;32;33273;-79
2022/01/10 00:31:40;;;;;;;40.67;20.85;;;;;;;3.22;56.97;99115.53;4423377;32;32204;-79
2022/01/10 00:34:12;;;;;;;36.35;20.95;;;;;;;3.27;56.95;99121.22;4410420;32;34506;-79
2022/01/10 00:36:46;;;;;;;40.25;20.58;;;;;;;3.17;57.32;99115.22;4423194;32;33952;-79
2022/01/10 00:39:18;;;;;;;42.92;21.73;;;;;;;3.09;57.63;99123.38;4423954;32;33439;-79
2022/01/10 00:41:55;;;;;;;39.20;20.25;;;;;;;3.25;57.05;99126.03;4410193;32;32220;-79
2022/01/10 00:44:31;;;;;;;43.25;20.83;;;;;;;3.24;56.94;99125.19;4410348;32;33782;-79
2022/01/10 00:47:04;;;;;;;39.50;20.30;;;;;;;3.38;56.59;99128.12;4411341;32;34114;-80
2022/01/10 00:49:38;;;;;;;43.63;23.15;;;;;;;3.34;56.68;99126.78;4410728;32;33831;-79
2022/01/10 00:52:12;;;;;;;56.65;27.35;;;;;;;3.35;56.53;99129.34;4410298;32;33267;-80
2022/01/10 00:54:43;;;;;;;45.67;22.37;;;;;;;3.24;56.72;99129.75;4410748;32;34552;-80
2022/01/10 00:57:18;;;;;;;58.03;26.95;;;;;;;3.35;56.26;99133.91;4410384;32;33432;-79
2022/01/10 00:59:52;;;;;;;48.00;23.42;;;;;;;3.24;56.64;99130.59;4410042;32;33631;-80
2022/01/10 01:02:31;;;;;;;43.03;21.85;;;;;;;3.18;56.66;99133.16;4423075;32;33269;-80
2022/01/10 01:05:06;;;;;;;40.33;20.35;;;;;;;3.14;56.77;99134.53;4409700;32;33925;-80
2022/01/10 01:07:40;;;;;;;38.97;19.77;;;;;;;3.16;56.72;99133.34;4409821;32;33047;-79
2022/01/10 01:12:53;;;;;;;40.28;20.20;;;;;;;3.18;56.66;99139.44;4397763;32;32993;-79
2022/01/10 01:15:31;;;;;;;37.28;19.67;;;;;;;3.16;56.74;99137.91;4411044;32;34396;-79
2022/01/10 01:23:59;;;;;;;38.67;21.23;;;;;;;2.94;57.17;99142.22;4410791;32;31703;-79
2022/01/10 01:26:37;;;;;;;45.30;24.92;;;;;;;3.13;56.86;99140.97;4412082;32;34333;-79
2022/01/10 01:29:09;;;;;;;37.10;21.48;;;;;;;2.96;57.24;99142.88;4409756;32;33891;-79
2022/01/10 01:31:44;;;;;;;39.10;22.17;;;;;;;2.87;57.70;99139.34;4409930;32;31760;-79
2022/01/10 01:34:14;;;;;;;37.63;19.40;;;;;;;2.88;57.90;99145.63;4409771;32;34455;-79
2022/01/10 01:36:49;;;;;;;36.55;20.33;;;;;;;3.08;57.24;99146.06;4408628;32;34360;-79
2022/01/10 01:39:24;;;;;;;39.58;22.45;;;;;;;3.14;56.76;99135.38;4422738;32;32398;-79
2022/01/10 01:42:01;;;;;;;42.08;22.60;;;;;;;2.96;57.20;99135.59;4422395;32;33394;-79
2022/01/10 01:44:34;;;;;;;39.63;22.55;;;;;;;2.93;57.34;99143.25;4422734;32;33634;-79
2022/01/10 01:47:03;;;;;;;40.33;21.15;;;;;;;3.03;57.17;99156.59;4409917;32;34503;-79
2022/01/10 01:49:36;;;;;;;40.67;21.98;;;;;;;2.95;57.67;99149.34;4422319;32;32596;-79
2022/01/10 01:52:05;;;;;;;36.75;20.35;;;;;;;3.05;57.74;99149.13;4409319;32;31685;-79
2022/01/10 01:54:38;;;;;;;40.22;21.37;;;;;;;3.05;57.57;99149.13;4422008;32;33990;-79
2022/01/10 01:57:15;;;;;;;42.80;22.45;;;;;;;2.93;57.87;99156.78;4422220;32;34041;-79
2022/01/10 01:59:46;;;;;;;38.58;21.60;;;;;;;3.07;57.66;99156.06;4409878;32;34552;-80
2022/01/10 02:02:17;;;;;;;44.15;23.67;;;;;;;3.12;57.54;99155.56;4409501;32;33378;-79
2022/01/10 02:04:49;;;;;;;40.22;22.83;;;;;;;3.17;57.53;99161.28;4422149;32;33165;-79
2022/01/10 02:07:23;;;;;;;41.53;22.65;;;;;;;3.14;57.53;99157.06;4408566;32;34038;-79
2022/01/10 02:09:53;;;;;;;42.28;20.62;;;;;;;3.09;57.89;99154.03;4409129;32;33962;-79
2022/01/10 02:12:24;;;;;;;46.75;23.62;;;;;;;3.25;57.35;99145.00;4421764;32;31820;-79
2022/01/10 02:14:58;;;;;;;42.62;22.23;;;;;;;3.28;57.31;99144.62;4421616;32;34489;-79
2022/01/10 02:17:38;;;;;;;47.67;23.52;;;;;;;3.22;57.47;99145.34;4396675;32;32857;-79
2022/01/10 02:20:09;;;;;;;43.60;22.80;;;;;;;3.30;57.23;99148.84;4434472;32;33613;-79
2022/01/10 02:22:38;;;;;;;40.55;22.52;;;;;;;3.14;57.67;99156.22;4421907;32;31884;-79
2022/01/10 02:25:10;;;;;;;51.35;24.08;;;;;;;3.23;57.40;99150.59;4421843;32;31880;-79
2022/01/10 02:27:39;;;;;;;41.75;22.35;;;;;;;3.28;57.39;99156.31;4409530;32;34268;-80
2022/01/10 02:30:13;;;;;;;41.25;22.25;;;;;;;3.23;57.69;99157.88;4408783;32;32413;-79
2022/01/10 02:32:46;;;;;;;38.58;21.30;;;;;;;3.28;57.57;99150.88;4411271;32;32891;-79
2022/01/10 02:35:30;;;;;;;42.83;22.50;;;;;;;3.27;57.48;99149.19;4399620;32;32266;-79
2022/01/10 02:38:07;;;;;;;44.65;23.38;;;;;;;3.29;57.60;99149.03;4422280;32;34242;-79
2022/01/10 02:40:44;;;;;;;45.92;24.33;;;;;;;3.13;58.00;99151.81;4411477;32;33787;-79
2022/01/10 02:43:19;;;;;;;41.78;23.02;;;;;;;3.23;57.68;99153.31;4411608;32;33107;-79
2022/01/10 02:45:52;;;;;;;41.08;23.10;;;;;;;3.18;57.80;99152.16;4408380;32;33940;-79
2022/01/10 02:48:35;;;;;;;44.13;23.08;;;;;;;3.13;57.99;99154.53;4426856;32;33102;-79
2022/01/10 02:51:05;;;;;;;43.17;23.35;;;;;;;3.09;58.00;99151.31;4426417;32;33943;-80
2022/01/10 02:53:38;;;;;;;41.28;21.87;;;;;;;3.25;57.62;99155.84;4411073;32;34117;-79
2022/01/10 02:56:09;;;;;;;40.58;22.70;;;;;;;3.23;57.58;99149.75;4424133;32;33524;-79
2022/01/10 02:58:41;;;;;;;46.13;23.52;;;;;;;3.41;57.17;99161.19;4423358;32;33947;-80
2022/01/10 03:01:08;;;;;;;43.58;24.15;;;;;;;3.32;57.31;99162.22;4423159;32;33774;-79
2022/01/10 03:03:45;;;;;;;42.45;23.58;;;;;;;3.36;57.12;99165.44;4410668;32;31882;-79
2022/01/10 03:06:19;;;;;;;45.22;23.67;;;;;;;3.28;57.23;99166.31;4411042;32;33611;-79
2022/01/10 03:08:55;;;;;;;41.37;22.08;;;;;;;3.25;57.39;99172.94;4410718;32;32588;-80
2022/01/10 03:11:31;;;;;;;46.92;23.83;;;;;;;3.19;57.41;99168.25;4410443;32;33493;-79
2022/01/10 03:14:02;;;;;;;42.45;23.45;;;;;;;3.30;57.10;99167.81;4411359;32;34021;-80
2022/01/10 03:16:35;;;;;;;42.38;23.40;;;;;;;3.21;57.48;99168.91;4410548;32;32402;-79
2022/01/10 03:19:08;;;;;;;41.75;22.55;;;;;;;3.20;57.59;99171.78;4423142;32;34068;-79
2022/01/10 03:21:39;;;;;;;45.28;23.62;;;;;;;3.21;57.49;99176.19;4423551;32;33934;-79
2022/01/10 03:24:10;;;;;;;41.97;22.27;;;;;;;3.20;57.61;99174.50;4410530;32;31861;-79
2022/01/10 03:26:48;;;;;;;38.83;22.10;;;;;;;3.23;57.58;99174.16;4423605;32;33238;-79
2022/01/10 03:29:21;;;;;;;45.10;23.05;;;;;;;3.22;57.60;99178.75;4411007;32;33912;-79
2022/01/10 03:31:51;;;;;;;39.30;21.35;;;;;;;3.30;57.37;99180.53;4423499;32;33762;-79
2022/01/10 03:34:22;;;;;;;43.47;22.20;;;;;;;3.39;57.20;99174.06;4398315;32;33880;-79
2022/01/10 03:36:51;;;;;;;43.13;23.33;;;;;;;3.21;57.61;99179.75;4410926;32;34343;-79
2022/01/10 03:39:24;;;;;;;46.40;23.02;;;;;;;3.16;57.81;99184.00;4423492;32;35417;-79
2022/01/10 03:41:54;;;;;;;45.10;22.62;;;;;;;3.30;57.56;99186.81;4423726;32;33421;-80
2022/01/10 03:44:27;;;;;;;45.47;23.48;;;;;;;3.34;57.46;99194.59;4410850;32;31827;-79
2022/01/10 03:46:59;;;;;;;45.75;23.92;;;;;;;3.42;57.20;99194.56;4410449;32;32101;-79
2022/01/10 03:49:29;;;;;;;44.22;23.33;;;;;;;3.13;57.86;99200.63;4423388;32;32926;-79
2022/01/10 03:52:01;;;;;;;45.55;23.08;;;;;;;3.38;57.31;99196.78;4423693;32;33369;-79
2022/01/10 03:54:34;;;;;;;46.33;23.75;;;;;;;3.34;57.55;99202.72;4410607;32;33406;-79
2022/01/10 03:57:06;;;;;;;41.08;22.55;;;;;;;3.34;57.51;99200.87;4410431;32;34340;-79
2022/01/10 03:59:38;;;;;;;45.40;23.48;;;;;;;3.47;57.15;99205.75;4410042;32;34462;-79
2022/01/10 04:02:14;;;;;;;43.30;23.55;;;;;;;3.49;57.11;99209.97;4423116;32;34789;-80
2022/01/10 04:04:50;;;;;;;39.47;22.52;;;;;;;3.45;57.35;99211.34;4411037;32;33516;-79
2022/01/10 04:07:20;;;;;;;45.08;23.75;;;;;;;3.29;57.79;99219.53;4410365;32;33926;-79
2022/01/10 04:09:54;;;;;;;40.80;22.35;;;;;;;3.56;57.20;99227.25;4410277;32;33928;-79
2022/01/10 04:12:33;;;;;;;44.45;22.55;;;;;;;3.53;57.34;99224.88;4410643;32;33725;-79
2022/01/10 04:15:08;;;;;;;40.78;22.75;;;;;;;3.45;57.44;99221.34;4423340;32;32745;-79
2022/01/10 04:17:44;;;;;;;44.35;22.85;;;;;;;3.49;57.28;99228.12;4410818;32;33784;-79
2022/01/10 04:20:21;;;;;;;44.40;24.02;;;;;;;3.45;57.57;99233.03;4410779;32;34252;-79
2022/01/10 04:23:00;;;;;;;44.17;22.65;;;;;;;3.63;57.19;99224.66;4410338;32;33864;-79
2022/01/10 04:25:29;;;;;;;41.78;24.60;;;;;;;3.49;57.45;99231.66;4410911;32;33974;-79
2022/01/10 04:27:58;;;;;;;48.83;24.48;;;;;;;3.38;57.92;99236.63;4410378;32;34484;-79
2022/01/10 04:30:35;;;;;;;49.03;23.75;;;;;;;3.47;57.73;99241.84;4423188;32;33002;-79
2022/01/10 04:33:17;;;;;;;51.15;25.35;;;;;;;3.48;57.63;99240.84;4410981;32;34027;-79
2022/01/10 04:35:48;;;;;;;43.58;23.85;;;;;;;3.54;57.68;99237.41;4410745;32;33341;-79
2022/01/10 04:38:23;;;;;;;51.10;25.70;;;;;;;3.59;57.48;99235.03;4422924;32;32336;-79
2022/01/10 04:40:54;;;;;;;49.35;25.45;;;;;;;3.67;57.36;99239.59;4410209;32;34644;-79
2022/01/10 04:43:34;;;;;;;45.85;23.87;;;;;;;3.49;57.68;99239.81;4410079;32;32476;-80
2022/01/10 04:46:05;;;;;;;45.45;23.58;;;;;;;3.62;57.48;99244.69;4410315;32;31873;-79
2022/01/10 04:48:39;;;;;;;45.75;24.48;;;;;;;3.57;57.59;99249.78;4409716;32;33418;-80
2022/01/10 04:51:12;;;;;;;52.35;26.08;;;;;;;3.56;57.62;99250.81;4409724;32;35185;-79
2022/01/10 04:53:50;;;;;;;46.78;24.52;;;;;;;3.50;57.83;99255.06;4409222;32;32505;-79
2022/01/10 04:56:19;;;;;;;45.17;23.90;;;;;;;3.61;57.48;99251.97;4410119;32;34281;-79
2022/01/10 04:58:54;;;;;;;45.08;25.23;;;;;;;3.55;57.61;99255.38;4422514;32;33534;-80
2022/01/10 05:01:25;;;;;;;47.03;25.60;;;;;;;3.63;57.39;99257.22;4422724;32;35080;-79
2022/01/10 05:04:00;;;;;;;48.05;25.60;;;;;;;3.62;57.56;99253.66;4409928;32;33404;-79
2022/01/10 05:06:30;;;;;;;46.05;24.75;;;;;;;3.74;57.28;99258.72;4410017;32;33440;-79
2022/01/10 05:09:02;;;;;;;48.97;26.77;;;;;;;3.69;57.29;99259.25;4422852;32;32654;-79
2022/01/10 05:11:39;;;;;;;49.63;26.65;;;;;;;3.77;57.11;99267.34;4422387;32;32999;-79
2022/01/10 05:14:17;;;;;;;46.63;27.10;;;;;;;3.45;57.76;99265.59;4423057;32;32482;-79
2022/01/10 05:16:51;;;;;;;48.33;25.73;;;;;;;3.61;57.46;99260.13;4410105;32;34313;-79
2022/01/10 05:19:19;;;;;;;53.70;26.62;;;;;;;3.63;57.50;99278.94;4422800;32;33670;-80
2022/01/10 05:21:50;;;;;;;53.03;27.33;;;;;;;3.62;57.36;99277.25;4422414;32;34380;-79
2022/01/10 05:24:18;;;;;;;54.85;26.90;;;;;;;3.63;57.28;99277.06;4422630;32;33509;-79
2022/01/10 05:26:48;;;;;;;49.35;26.92;;;;;;;3.60;57.33;99274.72;4422134;32;32741;-79
2022/01/10 05:29:21;;;;;;;50.97;27.25;;;;;;;3.43;57.71;99278.47;4422234;32;33698;-80
2022/01/10 05:31:54;;;;;;;51.60;28.33;;;;;;;3.50;57.54;99279.47;4409675;32;33071;-79
2022/01/10 05:34:22;;;;;;;52.25;27.15;;;;;;;3.59;57.27;99285.72;4410243;32;34015;-79
2022/01/10 05:36:50;;;;;;;54.83;29.40;;;;;;;3.58;57.35;99282.19;4409484;32;31916;-79
2022/01/10 05:39:18;;;;;;;52.28;26.95;;;;;;;3.50;57.57;99279.47;4422397;32;33205;-76
2022/01/10 05:41:49;;;;;;;50.40;27.75;;;;;;;3.50;57.63;99289.50;4422016;32;33964;-80
2022/01/10 05:44:18;;;;;;;54.58;25.85;;;;;;;3.59;57.28;99283.87;4421438;32;33364;-75
2022/01/10 05:46:46;;;;;;;48.08;27.00;;;;;;;3.59;57.29;99286.59;4411184;32;34010;-75
2022/01/10 05:49:15;;;;;;;51.20;25.90;;;;;;;3.47;57.60;99293.41;4436213;32;33871;-76
2022/01/10 05:51:43;;;;;;;48.72;26.92;;;;;;;3.67;57.92;99291.13;4409678;32;35133;-76
2022/01/10 05:54:13;;;;;;;52.10;26.67;;;;;;;3.63;58.83;99290.63;4422887;32;32543;-75
2022/01/10 05:56:40;;;;;;;51.88;28.00;;;;;;;3.62;57.87;99294.38;4423220;32;31916;-75
2022/01/10 05:59:10;;;;;;;52.55;26.90;;;;;;;3.77;57.33;99286.34;4410187;32;33916;-75
2022/01/10 06:01:38;;;;;;;49.38;26.83;;;;;;;3.68;57.26;99303.69;4409976;32;34343;-75
2022/01/10 06:04:08;;;;;;;51.37;27.30;;;;;;;3.73;56.96;99297.72;4411043;32;32361;-76
2022/01/10 06:06:39;;;;;;;52.85;27.10;;;;;;;3.87;56.34;99297.84;4422701;32;33537;-76
2022/01/10 06:09:12;;;;;;;50.75;28.27;;;;;;;3.81;56.86;99292.28;4409085;32;33276;-76
2022/01/10 06:11:40;;;;;;;48.67;25.58;;;;;;;3.72;57.10;99305.03;4420381;32;33430;-76
2022/01/10 06:14:12;;;;;;;55.00;28.00;;;;;;;3.84;58.09;99305.50;4408121;32;33838;-76
2022/01/10 06:16:42;;;;;;;47.20;25.88;;;;;;;3.93;57.87;99301.69;4407193;32;32788;-76
2022/01/10 06:19:10;;;;;;;45.72;26.27;;;;;;;4.11;56.73;99302.31;4395592;32;32215;-76
2022/01/10 06:21:41;;;;;;;48.38;25.67;;;;;;;4.07;56.19;99300.13;4409079;32;34489;-76
2022/01/10 06:24:16;;;;;;;49.08;26.37;;;;;;;4.14;55.86;99304.66;4410742;32;32441;-76
2022/01/10 06:26:52;;;;;;;45.97;25.83;;;;;;;4.16;55.75;99315.34;4411783;32;33599;-76
2022/01/10 06:29:23;;;;;;;50.20;25.35;;;;;;;4.23;55.44;99308.19;4423676;32;34469;-76
2022/01/10 06:31:51;;;;;;;47.95;26.15;;;;;;;4.00;56.03;99318.13;4409417;32;34673;-77
2022/01/10 06:34:22;;;;;;;49.47;25.85;;;;;;;4.07;55.87;99319.12;4422401;32;35059;-77
2022/01/10 06:36:53;;;;;;;50.75;25.95;;;;;;;4.04;56.09;99325.75;4422568;32;32762;-77
2022/01/10 06:39:21;;;;;;;50.38;27.67;;;;;;;3.91;56.21;99326.31;4423157;32;32780;-77
2022/01/10 06:41:49;;;;;;;48.90;27.17;;;;;;;3.99;55.85;99328.16;4423736;32;34405;-77
2022/01/10 06:44:17;;;;;;;53.25;28.52;;;;;;;3.92;56.04;99336.16;4411125;32;34626;-77
2022/01/10 06:46:48;;;;;;;55.70;28.33;;;;;;;3.98;55.82;99342.75;4436262;32;33296;-76
2022/01/10 06:49:21;;;;;;;62.22;31.48;;;;;;;3.86;55.81;99334.16;4411068;32;33715;-76
2022/01/10 06:51:52;;;;;;;56.37;30.52;;;;;;;3.70;56.09;99338.78;4411299;32;34500;-75
2022/01/10 06:54:23;;;;;;;57.95;29.27;;;;;;;3.76;56.17;99338.09;4410731;32;33915;-77
2022/01/10 06:56:51;;;;;;;57.38;29.12;;;;;;;3.89;55.74;99352.81;4410922;32;33711;-76
2022/01/10 06:59:20;;;;;;;58.05;30.40;;;;;;;3.94;55.73;99344.97;4410663;32;33058;-78
2022/01/10 07:01:53;;;;;;;59.42;31.40;;;;;;;3.85;55.90;99356.91;4407732;32;34457;-77
2022/01/10 07:04:22;;;;;;;57.03;29.23;;;;;;;3.90;55.66;99359.09;4420905;32;34122;-77
2022/01/10 07:06:50;;;;;;;56.70;30.00;;;;;;;3.84;55.91;99352.50;4395618;32;31870;-77
2022/01/10 07:09:19;;;;;;;67.93;32.90;;;;;;;4.00;55.74;99362.44;4421126;32;32192;-77
2022/01/10 07:11:47;;;;;;;72.05;32.83;;;;;;;3.90;55.73;99354.47;4395644;32;32954;-77
2022/01/10 07:14:17;;;;;;;67.72;31.62;;;;;;;3.87;55.71;99356.72;4395416;32;32916;-77
2022/01/10 07:16:45;;;;;;;70.07;31.08;;;;;;;3.96;55.48;99369.22;4408079;32;33580;-77
2022/01/10 07:19:13;;;;;;;70.15;33.38;;;;;;;4.48;66.35;99371.41;4407898;32;33813;-77
2022/01/10 07:21:43;;;;;;;65.75;32.70;;;;;;;4.28;58.40;99371.81;4407789;32;34041;-77
2022/01/10 07:24:13;;;;;;;68.43;36.03;;;;;;;4.34;56.84;99375.69;4408244;32;34146;-77
2022/01/10 07:26:41;;;;;;;67.45;33.53;;;;;;;4.39;55.64;99377.91;4407923;32;31693;-77
2022/01/10 07:29:11;;;;;;;63.72;31.23;;;;;;;4.33;55.15;99384.88;4407808;32;32391;-77
2022/01/10 07:31:45;;;;;;;61.63;30.30;;;;;;;4.25;54.95;99393.06;4407996;32;34375;-77
2022/01/10 07:34:16;;;;;;;57.58;31.55;;;;;;;4.08;54.84;99399.56;4394384;32;32497;-78
2022/01/10 07:36:44;;;;;;;53.05;29.40;;;;;;;4.11;55.08;99404.66;4407811;32;31763;-77
2022/01/10 07:39:16;;;;;;;58.45;30.30;;;;;;;4.45;54.28;99410.62;4395345;32;33122;-77
2022/01/10 07:41:51;;;;;;;60.42;30.48;;;;;;;4.47;54.59;99402.31;4395636;32;32796;-77
2022/01/10 07:44:19;;;;;;;57.58;28.20;;;;;;;4.62;54.49;99409.50;4395438;32;32403;-77
2022/01/10 07:46:46;;;;;;;51.80;27.92;;;;;;;4.42;54.83;99408.28;4420429;32;32044;-77
2022/01/10 07:49:19;;;;;;;52.72;27.85;;;;;;;4.39;54.87;99407.78;4407614;32;32108;-77
2022/01/10 07:51:51;;;;;;;52.67;26.75;;;;;;;4.63;54.46;99410.34;4420862;32;32708;-77
2022/01/10 07:54:21;;;;;;;48.35;26.60;;;;;;;4.63;54.54;99413.06;4407869;32;33821;-77
2022/01/10 07:56:52;;;;;;;58.45;28.08;;;;;;;4.55;54.53;99405.81;4408153;32;33380;-77
2022/01/10 07:59:23;;;;;;;50.97;26.87;;;;;;;4.56;54.73;99414.81;4408156;32;34708;-77
2022/01/10 08:01:51;;;;;;;52.17;28.42;;;;;;;4.65;54.36;99419.19;4407371;32;34034;-77
2022/01/10 08:04:19;;;;;;;52.60;27.90;;;;;;;4.75;54.11;99416.25;4408056;32;34718;-77
2022/01/10 08:06:50;;;;;;;50.28;26.75;;;;;;;4.87;53.69;99412.09;4407802;32;33004;-77
2022/01/10 08:09:18;;;;;;;49.47;26.45;;;;;;;4.78;54.11;99422.16;4420376;32;32132;-77
2022/01/10 08:11:59;;;;;;;49.58;26.37;;;;;;;5.01;53.71;99424.94;4407857;32;35006;-77
2022/01/10 08:14:37;;;;;;;49.70;27.13;;;;;;;5.09;53.38;99424.03;4407782;32;32449;-77
2022/01/10 08:17:18;;;;;;;53.05;28.02;;;;;;;4.91;53.14;99433.31;4404017;32;34143;-77
2022/01/10 08:19:49;;;;;;;49.47;26.20;;;;;;;5.04;52.65;99432.72;4407275;32;32681;-77
2022/01/10 08:22:17;;;;;;;49.47;26.73;;;;;;;4.94;52.46;99426.66;4419829;32;34399;-77
2022/01/10 08:24:45;;;;;;;50.15;25.83;;;;;;;4.90;52.60;99426.19;4404039;32;32645;-77
2022/01/10 08:27:16;;;;;;;46.67;25.95;;;;;;;5.05;52.43;99428.13;4395041;32;33227;-77
2022/01/10 08:29:44;;;;;;;44.78;25.35;;;;;;;5.08;52.34;99428.63;4407317;32;33713;-77
2022/01/10 08:32:12;;;;;;;46.22;24.92;;;;;;;5.19;52.06;99425.47;4407307;32;33724;-77
2022/01/10 08:34:44;;;;;;;51.72;26.42;;;;;;;5.08;52.24;99438.66;4395156;32;33301;-77
2022/01/10 08:37:11;;;;;;;44.47;25.88;;;;;;;4.96;52.17;99435.50;4407239;32;31826;-79
2022/01/10 08:39:39;;;;;;;46.83;25.45;;;;;;;5.17;51.69;99438.41;4382274;32;33304;-77
2022/01/10 08:42:11;;;;;;;48.33;25.92;;;;;;;5.09;51.83;99446.63;4407396;32;33775;-77
2022/01/10 08:44:43;;;;;;;47.03;27.15;;;;;;;5.09;51.92;99448.50;4406965;32;33295;-77
2022/01/10 08:47:13;;;;;;;47.28;26.75;;;;;;;4.95;52.13;99441.97;4382755;32;31761;-77
2022/01/10 08:49:44;;;;;;;46.45;25.90;;;;;;;4.91;52.17;99444.19;4407387;32;33311;-77
2022/01/10 08:52:19;;;;;;;40.28;23.27;;;;;;;4.98;51.99;99449.75;4407178;32;33111;-77
2022/01/10 08:54:50;;;;;;;46.85;24.95;;;;;;;4.90;52.08;99447.94;4407204;32;33328;-77
2022/01/10 08:57:21;;;;;;;47.80;24.77;;;;;;;4.89;52.21;99453.53;4407965;32;33119;-77
2022/01/10 08:59:50;;;;;;;48.60;26.37;;;;;;;4.92;52.31;99462.19;4397605;32;33112;-77
2022/01/10 09:02:23;;;;;;;44.25;23.67;;;;;;;4.87;52.36;99459.16;4421570;32;34471;-77
2022/01/10 09:04:51;;;;;;;43.63;23.45;;;;;;;4.79;52.29;99461.91;4407307;32;33485;-77
2022/01/10 09:07:30;;;;;;;43.03;24.48;;;;;;;4.77;52.33;99469.41;4397196;32;32022;-72
2022/01/10 09:10:00;;;;;;;46.95;24.60;;;;;;;4.79;52.29;99461.06;4395947;32;31715;-76
2022/01/10 09:12:34;;;;;;;42.83;23.35;;;;;;;4.93;61.50;99468.47;4407913;32;33544;-76
2022/01/10 09:15:09;;;;;;;42.40;23.48;;;;;;;5.10;56.22;99467.37;4409467;32;34202;-77
2022/01/10 09:17:39;;;;;;;44.75;22.33;;;;;;;5.10;54.32;99467.37;4396220;32;32466;-77
2022/01/10 09:20:10;;;;;;;40.97;23.42;;;;;;;4.92;53.43;99467.63;4407197;32;32160;-77
2022/01/10 09:22:50;;;;;;;46.75;24.58;;;;;;;5.00;52.92;99471.34;4407365;32;33027;-76
2022/01/10 09:25:23;;;;;;;39.78;22.62;;;;;;;5.04;52.60;99476.25;4407373;32;33821;-76
2022/01/10 09:27:51;;;;;;;40.40;21.75;;;;;;;5.02;52.31;99477.44;4407481;32;34285;-76
2022/01/10 09:30:21;;;;;;;39.20;20.85;;;;;;;5.01;52.32;99475.75;4392721;32;115983;-77
2022/01/10 09:32:59;;;;;;;40.58;21.15;;;;;;;5.12;51.96;99481.63;4407615;32;35106;-77
2022/01/10 09:35:29;;;;;;;40.05;21.75;;;;;;;5.11;52.04;99476.38;4407094;32;33217;-77
2022/01/10 09:38:02;;;;;;;40.10;21.62;;;;;;;5.19;51.98;99474.44;4395183;32;33394;-77
2022/01/10 09:40:31;;;;;;;41.00;21.12;;;;;;;5.17;51.99;99471.06;4407021;32;33875;-77
2022/01/10 09:43:03;;;;;;;42.60;21.55;;;;;;;5.14;51.71;99468.69;4394928;32;34000;-77
2022/01/10 09:45:34;;;;;;;41.08;20.55;;;;;;;5.25;51.52;99468.25;4419696;32;34506;-77
2022/01/10 09:48:03;;;;;;;43.10;21.75;;;;;;;5.15;51.76;99462.22;4382305;32;34233;-77
2022/01/10 09:50:32;;;;;;;35.00;19.85;;;;;;;5.04;52.25;99464.50;4406903;32;32157;-77
2022/01/10 09:53:00;;;;;;;36.75;20.42;;;;;;;4.94;52.36;99468.31;4406580;32;32884;-77
2022/01/10 09:55:31;;;;;;;34.47;18.48;;;;;;;5.02;51.77;99466.56;4407040;32;32499;-76
2022/01/10 09:57:59;;;;;;;30.45;15.50;;;;;;;5.06;51.55;99465.19;4406140;32;33190;-77
2022/01/10 10:00:28;;;;;;;32.75;14.57;;;;;;;5.01;51.52;99468.44;4381849;32;33028;-77
2022/01/10 10:02:56;;;;;;;24.33;13.02;;;;;;;5.00;50.39;99468.63;4394375;32;33923;-77
2022/01/10 10:05:24;;;;;;;20.95;11.30;;;;;;;5.17;49.89;99470.22;4406773;32;34093;-77
2022/01/10 10:07:52;;;;;;;24.35;12.27;;;;;;;4.86;49.33;99468.34;4407026;32;33480;-77
2022/01/10 10:10:21;;;;;;;23.85;12.35;;;;;;;5.10;49.23;99466.53;4406552;32;33690;-76
2022/01/10 10:12:50;;;;;;;20.52;10.50;;;;;;;5.01;49.37;99468.44;4393763;32;33502;-76
2022/01/10 10:15:28;;;;;;;34.88;16.75;;;;;;;4.90;49.36;99466.97;4393765;32;33325;-76
2022/01/10 10:17:59;;;;;;;32.30;16.60;;;;;;;4.80;50.17;99460.91;4394581;32;32956;-76
2022/01/10 10:20:27;;;;;;;26.92;15.75;;;;;;;5.23;49.85;99461.31;4393753;32;32224;-76
2022/01/10 10:23:16;;;;;;;49.03;22.13;;;;;;;5.28;50.24;99470.62;4397599;32;33922;-76
2022/01/10 10:25:50;;;;;;;26.95;13.52;;;;;;;5.43;49.56;99470.69;4406635;32;34662;-77
2022/01/10 10:28:20;;;;;;;37.30;18.85;;;;;;;5.38;48.98;99459.50;4406300;32;32550;-76
2022/01/10 10:30:48;;;;;;;34.65;17.95;;;;;;;5.73;48.60;99459.91;4406084;32;33462;-76
2022/01/10 10:33:20;;;;;;;39.17;19.85;;;;;;;5.68;49.05;99459.63;4406504;32;34284;-76
2022/01/10 10:36:07;;;;;;;38.35;19.73;;;;;;;5.77;49.46;99456.62;4405668;32;34245;-76
2022/01/10 10:38:35;;;;;;;28.42;12.15;;;;;;;5.52;50.05;99461.44;4406915;32;33170;-76
2022/01/10 10:41:04;;;;;;;20.35;11.60;;;;;;;5.64;48.74;99464.56;4405969;32;32618;-76
2022/01/10 10:43:35;;;;;;;19.73;10.82;;;;;;;5.74;48.71;99458.88;4393488;32;34121;-77
2022/01/10 10:46:10;;;;;;;21.15;10.55;;;;;;;5.73;48.89;99457.19;4394301;32;32604;-76
2022/01/10 10:48:46;;;;;;;18.87;9.98;;;;;;;5.24;49.64;99461.13;4405977;32;34110;-77
2022/01/10 10:51:16;;;;;;;17.10;9.07;;;;;;;5.77;48.12;99455.78;4405889;32;33860;-77
2022/01/10 10:53:45;;;;;;;24.85;12.10;;;;;;;5.98;48.04;99464.12;4405832;32;35068;-76
2022/01/10 10:56:17;;;;;;;23.83;13.82;;;;;;;5.93;48.04;99466.53;4393678;32;34127;-76
2022/01/10 10:58:45;;;;;;;24.05;12.20;;;;;;;6.02;47.82;99465.44;4394067;32;32807;-75
2022/01/10 11:01:15;;;;;;;24.37;12.25;;;;;;;6.14;47.64;99468.56;4379454;32;32098;-78
2022/01/10 11:03:43;;;;;;;21.05;11.25;;;;;;;6.21;47.60;99467.63;4391576;32;34171;-77
2022/01/10 11:06:13;;;;;;;25.52;12.95;;;;;;;6.17;48.01;99463.59;4393167;32;32621;-72
2022/01/10 11:08:44;;;;;;;30.20;16.27;;;;;;;6.15;53.69;99462.91;4391708;32;33439;-76
2022/01/10 11:11:21;;;;;;;35.42;18.25;;;;;;;6.47;55.15;99471.78;4395352;32;32263;-77
2022/01/10 11:13:56;;;;;;;39.95;19.48;;;;;;;6.50;49.76;99474.13;4396271;32;34365;-77
2022/01/10 11:16:28;;;;;;;44.20;22.33;;;;;;;6.59;49.39;99467.53;4396322;32;33806;-77
2022/01/10 11:18:56;;;;;;;47.45;21.77;;;;;;;6.03;50.04;99482.63;4395788;32;33523;-77
2022/01/10 11:21:27;;;;;;;45.00;22.40;;;;;;;5.84;51.09;99486.72;4395426;32;32138;-77
2022/01/10 11:23:56;;;;;;;40.33;20.08;;;;;;;6.19;50.60;99488.75;4396034;32;34567;-77
2022/01/10 11:26:39;;;;;;;40.67;19.85;;;;;;;6.76;62.12;99482.66;4396284;32;34832;-77
2022/01/10 11:29:10;;;;;;;35.17;19.45;;;;;;;6.44;50.02;99481.19;4408113;32;33359;-77
2022/01/10 11:31:46;;;;;;;34.88;18.15;;;;;;;6.59;49.57;99475.69;4393498;32;33683;-77
2022/01/10 11:34:14;;;;;;;35.55;18.58;;;;;;;6.47;48.96;99480.81;4396115;32;34127;-78
2022/01/10 11:36:50;;;;;;;35.75;18.77;;;;;;;6.57;48.21;99484.06;4383001;32;33327;-78
2022/01/10 11:39:18;;;;;;;34.97;17.58;;;;;;;6.61;48.82;99487.25;4395422;32;32962;-78
2022/01/10 11:41:46;;;;;;;36.15;17.23;;;;;;;6.20;49.24;99485.00;4395313;32;33311;-77
2022/01/10 11:44:18;;;;;;;15.60;8.65;;;;;;;6.49;48.81;99483.34;4382910;32;32783;-78
2022/01/10 11:46:50;;;;;;;16.08;7.22;;;;;;;6.47;44.79;99479.97;4394348;32;33376;-78
2022/01/10 11:49:21;;;;;;;14.40;7.03;;;;;;;6.65;44.90;99488.56;4395376;32;31824;-78
2022/01/10 11:51:50;;;;;;;12.93;6.93;;;;;;;6.49;44.51;99494.25;4395317;32;33075;-78
2022/01/10 11:54:26;;;;;;;14.02;8.02;;;;;;;6.74;43.23;99486.59;4395928;32;34114;-78